sensor_id;sensor_type;location;lat;lon;timestamp;temperature;humidity
21770;DHT22;11046;49.558;8.674;2023-09-30T00:00:46;16.80;95.30
21770;DHT22;11046;49.558;8.674;2023-09-30T00:03:47;16.70;95.60
21770;DHT22;11046;49.558;8.674;2023-09-30T00:06:48;16.60;95.70
21770;DHT22;11046;49.558;8.674;2023-09-30T00:09:48;16.60;95.70
21770;DHT22;11046;49.558;8.674;2023-09-30T00:12:49;16.50;96.10
21770;DHT22;11046;49.558;8.674;2023-09-30T06:23:43;13.20;99.90
21770;DHT22;11046;49.558;8.674;2023-09-30T06:26:45;13.50;99.90
21770;DHT22;11046;49.558;8.674;2023-09-30T06:29:46;13.80;99.90
21770;DHT22;11046;49.558;8.674;2023-09-30T06:32:47;14.10;99.90
21770;DHT22;11046;49.558;8.674;2023-09-30T06:35:48;14.30;99.90
21770;DHT22;11046;49.558;8.674;2023-09-30T06:38:51;14.50;99.90
21770;DHT22;11046;49.558;8.674;2023-09-30T06:41:52;14.70;99.90
21770;DHT22;11046;49.558;8.674;2023-09-30T06:44:53;14.80;99.90
21770;DHT22;11046;49.558;8.674;2023-09-30T06:47:54;14.90;99.90
21770;DHT22;11046;49.558;8.674;2023-09-30T06:50:55;15.00;99.90
21770;DHT22;11046;49.558;8.674;2023-09-30T06:53:56;15.00;99.90
21770;DHT22;11046;49.558;8.674;2023-09-30T06:56:56;15.10;99.90
21770;DHT22;11046;49.558;8.674;2023-09-30T06:59:57;15.20;99.90
21770;DHT22;11046;49.558;8.674;2023-09-30T07:02:59;15.30;99.90
21770;DHT22;11046;49.558;8.674;2023-09-30T07:06:00;15.30;99.90
21770;DHT22;11046;49.558;8.674;2023-09-30T07:09:04;15.40;99.90
21770;DHT22;11046;49.558;8.674;2023-09-30T07:12:05;15.40;99.90
21770;DHT22;11046;49.558;8.674;2023-09-30T07:15:06;15.50;99.90
21770;DHT22;11046;49.558;8.674;2023-09-30T07:18:07;15.50;99.90
21770;DHT22;11046;49.558;8.674;2023-09-30T07:21:08;15.60;99.90
21770;DHT22;11046;49.558;8.674;2023-09-30T07:24:09;15.60;99.90
21770;DHT22;11046;49.558;8.674;2023-09-30T07:27:10;15.70;99.90
21770;DHT22;11046;49.558;8.674;2023-09-30T07:30:12;16.00;99.90
21770;DHT22;11046;49.558;8.674;2023-09-30T07:33:15;16.30;99.80
21770;DHT22;11046;49.558;8.674;2023-09-30T07:36:16;16.50;99.50
21770;DHT22;11046;49.558;8.674;2023-09-30T07:39:17;16.70;99.20
21770;DHT22;11046;49.558;8.674;2023-09-30T07:42:18;17.00;99.00
21770;DHT22;11046;49.558;8.674;2023-09-30T07:45:18;17.20;98.70
21770;DHT22;11046;49.558;8.674;2023-09-30T07:48:21;17.40;98.40
21770;DHT22;11046;49.558;8.674;2023-09-30T07:51:23;17.50;98.20
21770;DHT22;11046;49.558;8.674;2023-09-30T07:54:24;17.70;97.90
21770;DHT22;11046;49.558;8.674;2023-09-30T07:57:24;17.80;97.50
21770;DHT22;11046;49.558;8.674;2023-09-30T08:00:25;18.10;97.20
21770;DHT22;11046;49.558;8.674;2023-09-30T08:03:26;18.20;96.80
21770;DHT22;11046;49.558;8.674;2023-09-30T08:06:26;18.40;96.30
21770;DHT22;11046;49.558;8.674;2023-09-30T08:09:27;18.40;95.90
21770;DHT22;11046;49.558;8.674;2023-09-30T08:12:28;18.30;95.50
21770;DHT22;11046;49.558;8.674;2023-09-30T08:15:28;18.40;95.20
21770;DHT22;11046;49.558;8.674;2023-09-30T08:18:30;18.60;94.90
21770;DHT22;11046;49.558;8.674;2023-09-30T08:21:31;18.90;94.60
21770;DHT22;11046;49.558;8.674;2023-09-30T08:24:31;19.10;94.00
21770;DHT22;11046;49.558;8.674;2023-09-30T08:27:32;19.30;93.40
21770;DHT22;11046;49.558;8.674;2023-09-30T08:30:33;19.40;93.20
21770;DHT22;11046;49.558;8.674;2023-09-30T08:33:34;19.60;92.90
21770;DHT22;11046;49.558;8.674;2023-09-30T08:36:36;19.70;92.40
21770;DHT22;11046;49.558;8.674;2023-09-30T08:39:38;19.80;92.10
21770;DHT22;11046;49.558;8.674;2023-09-30T08:42:40;20.00;91.80
21770;DHT22;11046;49.558;8.674;2023-09-30T08:45:43;20.30;91.40
21770;DHT22;11046;49.558;8.674;2023-09-30T08:48:46;20.60;90.80
21770;DHT22;11046;49.558;8.674;2023-09-30T08:51:48;20.70;90.40
21770;DHT22;11046;49.558;8.674;2023-09-30T08:54:49;20.70;90.20
21770;DHT22;11046;49.558;8.674;2023-09-30T08:57:50;20.60;90.30
21770;DHT22;11046;49.558;8.674;2023-09-30T09:00:51;20.70;90.20
21770;DHT22;11046;49.558;8.674;2023-09-30T09:03:53;21.00;89.40
21770;DHT22;11046;49.558;8.674;2023-09-30T09:06:55;21.00;88.80
21770;DHT22;11046;49.558;8.674;2023-09-30T09:10:09;21.10;88.50
21770;DHT22;11046;49.558;8.674;2023-09-30T09:13:10;21.30;87.60
21770;DHT22;11046;49.558;8.674;2023-09-30T09:16:11;21.40;87.10
21770;DHT22;11046;49.558;8.674;2023-09-30T09:19:15;21.40;86.00
21770;DHT22;11046;49.558;8.674;2023-09-30T09:22:16;21.50;85.10
21770;DHT22;11046;49.558;8.674;2023-09-30T09:25:17;21.50;85.30
21770;DHT22;11046;49.558;8.674;2023-09-30T09:28:17;21.60;84.70
21770;DHT22;11046;49.558;8.674;2023-09-30T09:31:22;21.60;84.00
21770;DHT22;11046;49.558;8.674;2023-09-30T09:34:23;21.60;83.70
21770;DHT22;11046;49.558;8.674;2023-09-30T09:37:25;21.70;83.50
21770;DHT22;11046;49.558;8.674;2023-09-30T09:40:28;21.80;83.00
21770;DHT22;11046;49.558;8.674;2023-09-30T09:43:31;21.80;82.50
21770;DHT22;11046;49.558;8.674;2023-09-30T09:46:33;21.90;82.40
21770;DHT22;11046;49.558;8.674;2023-09-30T09:49:35;22.10;81.50
21770;DHT22;11046;49.558;8.674;2023-09-30T09:52:37;22.20;80.70
21770;DHT22;11046;49.558;8.674;2023-09-30T09:55:42;22.30;80.10
21770;DHT22;11046;49.558;8.674;2023-09-30T09:58:43;22.30;80.10
21770;DHT22;11046;49.558;8.674;2023-09-30T10:01:46;22.40;79.80
21770;DHT22;11046;49.558;8.674;2023-09-30T10:04:49;22.40;79.30
21770;DHT22;11046;49.558;8.674;2023-09-30T10:11:02;22.40;78.00
21770;DHT22;11046;49.558;8.674;2023-09-30T10:14:03;22.40;78.40
21770;DHT22;11046;49.558;8.674;2023-09-30T10:17:04;22.30;78.40
21770;DHT22;11046;49.558;8.674;2023-09-30T10:20:06;22.20;78.10
21770;DHT22;11046;49.558;8.674;2023-09-30T10:23:23;22.40;78.00
21770;DHT22;11046;49.558;8.674;2023-09-30T10:26:27;22.50;77.30
21770;DHT22;11046;49.558;8.674;2023-09-30T10:29:40;22.80;77.40
21770;DHT22;11046;49.558;8.674;2023-09-30T10:35:52;23.00;75.50
21770;DHT22;11046;49.558;8.674;2023-09-30T10:38:53;23.00;75.80
21770;DHT22;11046;49.558;8.674;2023-09-30T10:41:54;23.20;75.50
21770;DHT22;11046;49.558;8.674;2023-09-30T10:44:55;23.00;74.40
21770;DHT22;11046;49.558;8.674;2023-09-30T10:47:56;23.00;74.10
21770;DHT22;11046;49.558;8.674;2023-09-30T10:51:18;22.80;73.30
21770;DHT22;11046;49.558;8.674;2023-09-30T10:54:30;22.60;72.60
21770;DHT22;11046;49.558;8.674;2023-09-30T10:57:31;22.50;73.50
21770;DHT22;11046;49.558;8.674;2023-09-30T11:00:32;22.70;73.60
21770;DHT22;11046;49.558;8.674;2023-09-30T11:03:33;22.70;73.10
21770;DHT22;11046;49.558;8.674;2023-09-30T11:06:34;22.80;72.80
21770;DHT22;11046;49.558;8.674;2023-09-30T11:09:35;22.90;72.80
21770;DHT22;11046;49.558;8.674;2023-09-30T11:12:37;23.00;72.30
21770;DHT22;11046;49.558;8.674;2023-09-30T11:15:38;23.00;72.10
21770;DHT22;11046;49.558;8.674;2023-09-30T11:18:38;22.90;72.20
21770;DHT22;11046;49.558;8.674;2023-09-30T11:21:41;23.00;72.00
21770;DHT22;11046;49.558;8.674;2023-09-30T11:24:42;23.10;71.50
21770;DHT22;11046;49.558;8.674;2023-09-30T11:27:43;23.20;71.10
21770;DHT22;11046;49.558;8.674;2023-09-30T11:30:56;23.30;70.70
21770;DHT22;11046;49.558;8.674;2023-09-30T11:33:57;23.20;70.10
21770;DHT22;11046;49.558;8.674;2023-09-30T11:37:02;23.30;70.00
21770;DHT22;11046;49.558;8.674;2023-09-30T11:40:13;23.40;69.70
21770;DHT22;11046;49.558;8.674;2023-09-30T11:43:14;23.40;69.00
21770;DHT22;11046;49.558;8.674;2023-09-30T11:46:17;23.40;68.80
21770;DHT22;11046;49.558;8.674;2023-09-30T11:49:29;23.20;68.00
21770;DHT22;11046;49.558;8.674;2023-09-30T11:52:30;23.00;67.30
21770;DHT22;11046;49.558;8.674;2023-09-30T11:55:31;22.90;67.70
21770;DHT22;11046;49.558;8.674;2023-09-30T11:58:33;22.80;67.60
21770;DHT22;11046;49.558;8.674;2023-09-30T12:01:33;22.80;67.90
21770;DHT22;11046;49.558;8.674;2023-09-30T12:04:35;22.90;67.80
21770;DHT22;11046;49.558;8.674;2023-09-30T12:07:36;23.00;68.50
21770;DHT22;11046;49.558;8.674;2023-09-30T12:10:37;23.10;68.00
21770;DHT22;11046;49.558;8.674;2023-09-30T12:13:39;23.00;67.10
21770;DHT22;11046;49.558;8.674;2023-09-30T12:16:40;22.70;67.00
21770;DHT22;11046;49.558;8.674;2023-09-30T12:19:42;22.60;66.90
21770;DHT22;11046;49.558;8.674;2023-09-30T12:22:42;22.50;66.90
21770;DHT22;11046;49.558;8.674;2023-09-30T12:25:43;22.50;67.00
21770;DHT22;11046;49.558;8.674;2023-09-30T12:28:45;22.50;67.20
21770;DHT22;11046;49.558;8.674;2023-09-30T12:31:46;22.50;66.90
21770;DHT22;11046;49.558;8.674;2023-09-30T12:34:47;22.50;66.80
21770;DHT22;11046;49.558;8.674;2023-09-30T12:37:47;22.60;66.80
21770;DHT22;11046;49.558;8.674;2023-09-30T12:40:48;22.70;67.10
21770;DHT22;11046;49.558;8.674;2023-09-30T12:43:50;22.70;66.30
21770;DHT22;11046;49.558;8.674;2023-09-30T12:46:51;22.70;66.00
21770;DHT22;11046;49.558;8.674;2023-09-30T12:49:52;22.70;65.90
21770;DHT22;11046;49.558;8.674;2023-09-30T12:52:54;22.80;66.10
21770;DHT22;11046;49.558;8.674;2023-09-30T12:55:56;22.80;65.90
21770;DHT22;11046;49.558;8.674;2023-09-30T12:58:57;22.60;65.80
21770;DHT22;11046;49.558;8.674;2023-09-30T13:01:58;22.60;66.10
21770;DHT22;11046;49.558;8.674;2023-09-30T13:04:59;22.50;66.50
21770;DHT22;11046;49.558;8.674;2023-09-30T13:08:00;22.60;66.40
21770;DHT22;11046;49.558;8.674;2023-09-30T13:11:05;22.60;66.00
21770;DHT22;11046;49.558;8.674;2023-09-30T13:14:06;22.70;65.50
21770;DHT22;11046;49.558;8.674;2023-09-30T13:17:07;22.90;65.10
21770;DHT22;11046;49.558;8.674;2023-09-30T13:20:09;23.00;64.60
21770;DHT22;11046;49.558;8.674;2023-09-30T13:23:09;23.00;64.30
21770;DHT22;11046;49.558;8.674;2023-09-30T13:26:10;23.20;64.60
21770;DHT22;11046;49.558;8.674;2023-09-30T13:29:13;23.30;63.90
21770;DHT22;11046;49.558;8.674;2023-09-30T13:32:15;23.40;63.80
21770;DHT22;11046;49.558;8.674;2023-09-30T13:35:19;23.70;63.50
21770;DHT22;11046;49.558;8.674;2023-09-30T13:38:19;24.00;63.20
21770;DHT22;11046;49.558;8.674;2023-09-30T13:41:20;24.20;62.40
21770;DHT22;11046;49.558;8.674;2023-09-30T13:44:21;24.00;61.90
21770;DHT22;11046;49.558;8.674;2023-09-30T13:47:22;23.80;61.70
21770;DHT22;11046;49.558;8.674;2023-09-30T13:50:22;23.40;61.80
21770;DHT22;11046;49.558;8.674;2023-09-30T13:53:23;23.20;62.30
21770;DHT22;11046;49.558;8.674;2023-09-30T13:56:24;23.10;62.30
21770;DHT22;11046;49.558;8.674;2023-09-30T13:59:24;23.10;62.10
21770;DHT22;11046;49.558;8.674;2023-09-30T14:02:27;22.90;61.90
21770;DHT22;11046;49.558;8.674;2023-09-30T14:05:27;22.70;61.80
21770;DHT22;11046;49.558;8.674;2023-09-30T14:08:28;22.50;61.80
21770;DHT22;11046;49.558;8.674;2023-09-30T14:11:30;22.50;61.90
21770;DHT22;11046;49.558;8.674;2023-09-30T14:14:34;22.40;61.70
21770;DHT22;11046;49.558;8.674;2023-09-30T14:17:35;22.40;61.80
21770;DHT22;11046;49.558;8.674;2023-09-30T14:20:36;22.40;61.90
21770;DHT22;11046;49.558;8.674;2023-09-30T14:23:37;22.50;61.70
21770;DHT22;11046;49.558;8.674;2023-09-30T14:26:38;22.50;61.30
21770;DHT22;11046;49.558;8.674;2023-09-30T14:29:39;22.60;61.10
21770;DHT22;11046;49.558;8.674;2023-09-30T14:32:41;22.50;61.60
21770;DHT22;11046;49.558;8.674;2023-09-30T14:35:45;22.50;60.70
21770;DHT22;11046;49.558;8.674;2023-09-30T14:38:46;22.40;60.40
21770;DHT22;11046;49.558;8.674;2023-09-30T14:41:46;22.10;60.70
21770;DHT22;11046;49.558;8.674;2023-09-30T14:44:47;22.10;60.70
21770;DHT22;11046;49.558;8.674;2023-09-30T14:47:48;22.10;60.60
21770;DHT22;11046;49.558;8.674;2023-09-30T14:50:50;21.90;60.70
21770;DHT22;11046;49.558;8.674;2023-09-30T14:53:51;21.90;60.90
21770;DHT22;11046;49.558;8.674;2023-09-30T14:56:52;21.90;61.20
21770;DHT22;11046;49.558;8.674;2023-09-30T14:59:52;21.90;61.70
21770;DHT22;11046;49.558;8.674;2023-09-30T15:02:53;21.80;62.00
21770;DHT22;11046;49.558;8.674;2023-09-30T15:05:58;21.80;62.20
21770;DHT22;11046;49.558;8.674;2023-09-30T15:09:02;21.70;62.90
21770;DHT22;11046;49.558;8.674;2023-09-30T15:12:04;21.60;63.00
21770;DHT22;11046;49.558;8.674;2023-09-30T15:15:06;21.50;63.00
21770;DHT22;11046;49.558;8.674;2023-09-30T15:18:07;21.30;62.90
21770;DHT22;11046;49.558;8.674;2023-09-30T15:21:07;21.20;63.10
21770;DHT22;11046;49.558;8.674;2023-09-30T15:24:08;21.10;63.10
21770;DHT22;11046;49.558;8.674;2023-09-30T15:27:09;21.00;63.10
21770;DHT22;11046;49.558;8.674;2023-09-30T15:30:11;20.80;63.10
21770;DHT22;11046;49.558;8.674;2023-09-30T15:33:12;20.80;63.30
21770;DHT22;11046;49.558;8.674;2023-09-30T15:36:13;20.80;63.50
21770;DHT22;11046;49.558;8.674;2023-09-30T15:39:14;20.80;63.80
21770;DHT22;11046;49.558;8.674;2023-09-30T15:42:16;20.70;64.10
21770;DHT22;11046;49.558;8.674;2023-09-30T15:45:17;20.60;64.50
21770;DHT22;11046;49.558;8.674;2023-09-30T15:48:18;20.60;64.90
21770;DHT22;11046;49.558;8.674;2023-09-30T15:51:20;20.40;65.40
21770;DHT22;11046;49.558;8.674;2023-09-30T15:54:22;20.30;66.10
21770;DHT22;11046;49.558;8.674;2023-09-30T15:57:22;20.20;66.30
21770;DHT22;11046;49.558;8.674;2023-09-30T16:00:23;20.20;66.30
21770;DHT22;11046;49.558;8.674;2023-09-30T16:03:24;20.10;66.50
21770;DHT22;11046;49.558;8.674;2023-09-30T16:06:25;20.00;66.60
21770;DHT22;11046;49.558;8.674;2023-09-30T16:09:25;19.90;66.50
21770;DHT22;11046;49.558;8.674;2023-09-30T16:12:27;19.80;66.90
21770;DHT22;11046;49.558;8.674;2023-09-30T16:15:27;19.70;67.30
21770;DHT22;11046;49.558;8.674;2023-09-30T16:18:29;19.70;67.60
21770;DHT22;11046;49.558;8.674;2023-09-30T16:21:30;19.60;68.10
21770;DHT22;11046;49.558;8.674;2023-09-30T16:24:30;19.50;68.40
21770;DHT22;11046;49.558;8.674;2023-09-30T16:27:32;19.40;68.70
21770;DHT22;11046;49.558;8.674;2023-09-30T16:30:32;19.30;69.20
21770;DHT22;11046;49.558;8.674;2023-09-30T16:33:34;19.20;69.60
21770;DHT22;11046;49.558;8.674;2023-09-30T16:36:36;19.00;70.20
21770;DHT22;11046;49.558;8.674;2023-09-30T16:39:37;18.90;70.50
21770;DHT22;11046;49.558;8.674;2023-09-30T16:42:38;18.80;70.80
21770;DHT22;11046;49.558;8.674;2023-09-30T16:45:39;18.70;71.20
21770;DHT22;11046;49.558;8.674;2023-09-30T16:48:39;18.60;71.70
21770;DHT22;11046;49.558;8.674;2023-09-30T16:51:40;18.50;72.10
21770;DHT22;11046;49.558;8.674;2023-09-30T16:54:41;18.40;72.60
21770;DHT22;11046;49.558;8.674;2023-09-30T16:57:43;18.30;73.00
21770;DHT22;11046;49.558;8.674;2023-09-30T17:00:44;18.20;73.30
21770;DHT22;11046;49.558;8.674;2023-09-30T17:03:45;18.10;73.50
21770;DHT22;11046;49.558;8.674;2023-09-30T17:06:46;18.00;73.80
21770;DHT22;11046;49.558;8.674;2023-09-30T17:09:47;17.90;74.20
21770;DHT22;11046;49.558;8.674;2023-09-30T17:12:49;17.70;74.70
21770;DHT22;11046;49.558;8.674;2023-09-30T17:15:50;17.60;75.30
21770;DHT22;11046;49.558;8.674;2023-09-30T17:18:51;17.50;75.90
21770;DHT22;11046;49.558;8.674;2023-09-30T17:21:52;17.40;76.20
21770;DHT22;11046;49.558;8.674;2023-09-30T17:24:52;17.40;76.50
21770;DHT22;11046;49.558;8.674;2023-09-30T17:27:53;17.30;76.90
21770;DHT22;11046;49.558;8.674;2023-09-30T17:30:54;17.20;77.00
21770;DHT22;11046;49.558;8.674;2023-09-30T17:33:55;17.20;77.40
21770;DHT22;11046;49.558;8.674;2023-09-30T17:36:56;17.10;77.60
21770;DHT22;11046;49.558;8.674;2023-09-30T17:39:57;17.00;78.00
21770;DHT22;11046;49.558;8.674;2023-09-30T17:42:58;16.90;78.10
21770;DHT22;11046;49.558;8.674;2023-09-30T17:46:12;16.80;78.20
21770;DHT22;11046;49.558;8.674;2023-09-30T17:49:13;16.80;78.70
21770;DHT22;11046;49.558;8.674;2023-09-30T17:52:14;16.80;78.40
21770;DHT22;11046;49.558;8.674;2023-09-30T17:55:14;16.70;78.30
21770;DHT22;11046;49.558;8.674;2023-09-30T17:58:15;16.70;78.40
21770;DHT22;11046;49.558;8.674;2023-09-30T18:01:16;16.60;78.70
21770;DHT22;11046;49.558;8.674;2023-09-30T18:04:21;16.50;78.90
21770;DHT22;11046;49.558;8.674;2023-09-30T18:07:22;16.50;79.20
21770;DHT22;11046;49.558;8.674;2023-09-30T18:10:24;16.40;79.50
21770;DHT22;11046;49.558;8.674;2023-09-30T18:13:24;16.40;80.00
21770;DHT22;11046;49.558;8.674;2023-09-30T18:16:25;16.30;80.10
21770;DHT22;11046;49.558;8.674;2023-09-30T18:19:25;16.30;80.50
21770;DHT22;11046;49.558;8.674;2023-09-30T18:22:26;16.30;80.70
21770;DHT22;11046;49.558;8.674;2023-09-30T18:25:27;16.20;81.00
21770;DHT22;11046;49.558;8.674;2023-09-30T18:28:28;16.10;81.20
21770;DHT22;11046;49.558;8.674;2023-09-30T18:31:29;16.10;81.40
21770;DHT22;11046;49.558;8.674;2023-09-30T18:34:30;16.10;81.70
21770;DHT22;11046;49.558;8.674;2023-09-30T18:37:33;16.00;81.70
21770;DHT22;11046;49.558;8.674;2023-09-30T18:40:34;16.00;81.70
21770;DHT22;11046;49.558;8.674;2023-09-30T18:43:35;16.00;81.70
21770;DHT22;11046;49.558;8.674;2023-09-30T18:46:36;16.00;81.90
21770;DHT22;11046;49.558;8.674;2023-09-30T18:49:36;15.90;81.90
21770;DHT22;11046;49.558;8.674;2023-09-30T18:52:37;15.90;82.00
21770;DHT22;11046;49.558;8.674;2023-09-30T18:55:39;15.90;82.20
21770;DHT22;11046;49.558;8.674;2023-09-30T18:58:40;15.80;82.20
21770;DHT22;11046;49.558;8.674;2023-09-30T19:01:41;15.80;82.30
21770;DHT22;11046;49.558;8.674;2023-09-30T19:04:41;15.80;82.40
21770;DHT22;11046;49.558;8.674;2023-09-30T19:07:42;15.70;82.60
21770;DHT22;11046;49.558;8.674;2023-09-30T19:10:42;15.70;82.70
21770;DHT22;11046;49.558;8.674;2023-09-30T19:13:43;15.60;82.60
21770;DHT22;11046;49.558;8.674;2023-09-30T19:16:44;15.60;82.90
21770;DHT22;11046;49.558;8.674;2023-09-30T19:19:44;15.40;83.00
21770;DHT22;11046;49.558;8.674;2023-09-30T19:22:49;15.40;83.40
21770;DHT22;11046;49.558;8.674;2023-09-30T19:25:51;15.40;84.10
21770;DHT22;11046;49.558;8.674;2023-09-30T19:28:51;15.30;84.30
21770;DHT22;11046;49.558;8.674;2023-09-30T19:31:52;15.40;84.50
21770;DHT22;11046;49.558;8.674;2023-09-30T19:34:54;15.30;84.80
21770;DHT22;11046;49.558;8.674;2023-09-30T19:37:55;15.20;85.10
21770;DHT22;11046;49.558;8.674;2023-09-30T19:40:56;15.10;85.50
21770;DHT22;11046;49.558;8.674;2023-09-30T19:43:59;15.00;85.90
21770;DHT22;11046;49.558;8.674;2023-09-30T19:47:00;14.80;86.70
21770;DHT22;11046;49.558;8.674;2023-09-30T19:50:01;14.70;87.00
21770;DHT22;11046;49.558;8.674;2023-09-30T19:53:04;14.70;87.00
21770;DHT22;11046;49.558;8.674;2023-09-30T19:56:05;14.70;87.20
21770;DHT22;11046;49.558;8.674;2023-09-30T19:59:08;14.80;87.20
21770;DHT22;11046;49.558;8.674;2023-09-30T20:02:08;14.70;87.20
21770;DHT22;11046;49.558;8.674;2023-09-30T20:05:09;14.70;87.30
21770;DHT22;11046;49.558;8.674;2023-09-30T20:08:10;14.70;87.50
21770;DHT22;11046;49.558;8.674;2023-09-30T20:11:22;14.70;87.50
21770;DHT22;11046;49.558;8.674;2023-09-30T20:14:24;14.70;87.60
21770;DHT22;11046;49.558;8.674;2023-09-30T20:17:25;14.70;87.50
21770;DHT22;11046;49.558;8.674;2023-09-30T20:20:26;14.70;87.70
21770;DHT22;11046;49.558;8.674;2023-09-30T20:23:27;14.60;88.60
21770;DHT22;11046;49.558;8.674;2023-09-30T20:26:29;14.60;88.10
21770;DHT22;11046;49.558;8.674;2023-09-30T20:29:29;14.50;88.10
21770;DHT22;11046;49.558;8.674;2023-09-30T20:32:31;14.60;88.10
21770;DHT22;11046;49.558;8.674;2023-09-30T20:35:32;14.50;88.10
21770;DHT22;11046;49.558;8.674;2023-09-30T20:38:35;14.50;89.00
21770;DHT22;11046;49.558;8.674;2023-09-30T20:41:39;14.50;88.40
21770;DHT22;11046;49.558;8.674;2023-09-30T20:44:47;14.40;88.80
21770;DHT22;11046;49.558;8.674;2023-09-30T20:47:51;14.40;88.90
21770;DHT22;11046;49.558;8.674;2023-09-30T20:50:51;14.30;88.80
21770;DHT22;11046;49.558;8.674;2023-09-30T20:53:52;14.20;89.00
21770;DHT22;11046;49.558;8.674;2023-09-30T20:56:53;14.20;89.30
21770;DHT22;11046;49.558;8.674;2023-09-30T20:59:54;14.10;89.40
21770;DHT22;11046;49.558;8.674;2023-09-30T21:02:55;14.10;89.50
21770;DHT22;11046;49.558;8.674;2023-09-30T21:05:56;14.10;89.40
21770;DHT22;11046;49.558;8.674;2023-09-30T21:08:56;14.20;89.30
21770;DHT22;11046;49.558;8.674;2023-09-30T21:11:57;14.10;89.40
21770;DHT22;11046;49.558;8.674;2023-09-30T21:14:58;14.00;89.60
21770;DHT22;11046;49.558;8.674;2023-09-30T21:17:59;14.00;89.90
21770;DHT22;11046;49.558;8.674;2023-09-30T21:21:00;13.90;90.00
21770;DHT22;11046;49.558;8.674;2023-09-30T21:24:00;13.90;90.10
21770;DHT22;11046;49.558;8.674;2023-09-30T21:27:01;13.90;90.30
21770;DHT22;11046;49.558;8.674;2023-09-30T21:30:03;13.80;90.30
21770;DHT22;11046;49.558;8.674;2023-09-30T21:33:06;13.80;90.40
21770;DHT22;11046;49.558;8.674;2023-09-30T21:36:06;13.70;90.40
21770;DHT22;11046;49.558;8.674;2023-09-30T21:39:07;13.70;90.60
21770;DHT22;11046;49.558;8.674;2023-09-30T21:42:09;13.70;90.60
21770;DHT22;11046;49.558;8.674;2023-09-30T21:45:10;13.70;90.70
21770;DHT22;11046;49.558;8.674;2023-09-30T21:48:11;13.60;90.70
21770;DHT22;11046;49.558;8.674;2023-09-30T21:51:11;13.50;90.80
21770;DHT22;11046;49.558;8.674;2023-09-30T21:54:12;13.50;91.00
21770;DHT22;11046;49.558;8.674;2023-09-30T21:57:12;13.40;91.00
21770;DHT22;11046;49.558;8.674;2023-09-30T22:00:15;13.30;91.20
21770;DHT22;11046;49.558;8.674;2023-09-30T22:03:27;13.20;91.30
21770;DHT22;11046;49.558;8.674;2023-09-30T22:06:28;13.20;91.40
21770;DHT22;11046;49.558;8.674;2023-09-30T22:09:29;13.20;91.50
21770;DHT22;11046;49.558;8.674;2023-09-30T22:12:29;13.10;91.50
21770;DHT22;11046;49.558;8.674;2023-09-30T22:15:31;13.10;91.70
21770;DHT22;11046;49.558;8.674;2023-09-30T22:18:36;13.10;91.70
21770;DHT22;11046;49.558;8.674;2023-09-30T22:21:37;13.10;91.70
21770;DHT22;11046;49.558;8.674;2023-09-30T22:24:38;13.10;91.70
21770;DHT22;11046;49.558;8.674;2023-09-30T22:27:38;13.10;91.80
21770;DHT22;11046;49.558;8.674;2023-09-30T22:30:41;13.10;91.70
21770;DHT22;11046;49.558;8.674;2023-09-30T22:33:41;13.10;91.70
21770;DHT22;11046;49.558;8.674;2023-09-30T22:36:42;13.10;91.70
21770;DHT22;11046;49.558;8.674;2023-09-30T22:39:43;13.10;91.80
21770;DHT22;11046;49.558;8.674;2023-09-30T22:42:44;13.10;91.80
21770;DHT22;11046;49.558;8.674;2023-09-30T22:45:44;12.90;91.90
21770;DHT22;11046;49.558;8.674;2023-09-30T22:48:45;12.70;92.10
21770;DHT22;11046;49.558;8.674;2023-09-30T22:51:45;12.60;92.30
21770;DHT22;11046;49.558;8.674;2023-09-30T22:54:46;12.50;92.40
21770;DHT22;11046;49.558;8.674;2023-09-30T22:57:48;12.40;92.50
21770;DHT22;11046;49.558;8.674;2023-09-30T23:00:50;12.20;92.70
21770;DHT22;11046;49.558;8.674;2023-09-30T23:03:50;12.10;92.90
21770;DHT22;11046;49.558;8.674;2023-09-30T23:06:52;12.10;93.00
21770;DHT22;11046;49.558;8.674;2023-09-30T23:09:54;12.20;93.00
21770;DHT22;11046;49.558;8.674;2023-09-30T23:12:55;12.20;93.00
21770;DHT22;11046;49.558;8.674;2023-09-30T23:15:56;12.30;93.00
21770;DHT22;11046;49.558;8.674;2023-09-30T23:18:56;12.20;93.00
21770;DHT22;11046;49.558;8.674;2023-09-30T23:22:00;12.20;93.10
21770;DHT22;11046;49.558;8.674;2023-09-30T23:25:01;12.20;93.10
21770;DHT22;11046;49.558;8.674;2023-09-30T23:28:07;12.30;93.10
21770;DHT22;11046;49.558;8.674;2023-09-30T23:31:10;12.30;93.20
21770;DHT22;11046;49.558;8.674;2023-09-30T23:34:11;12.30;93.10
21770;DHT22;11046;49.558;8.674;2023-09-30T23:37:13;12.20;93.10
21770;DHT22;11046;49.558;8.674;2023-09-30T23:40:15;12.20;93.10
21770;DHT22;11046;49.558;8.674;2023-09-30T23:43:18;12.20;93.20
21770;DHT22;11046;49.558;8.674;2023-09-30T23:46:18;12.10;93.20
21770;DHT22;11046;49.558;8.674;2023-09-30T23:49:19;12.00;93.30
21770;DHT22;11046;49.558;8.674;2023-09-30T23:52:28;11.90;93.40
21770;DHT22;11046;49.558;8.674;2023-09-30T23:55:29;11.90;93.50
21770;DHT22;11046;49.558;8.674;2023-09-30T23:58:31;12.00;93.50
